< < Back
Terminal Aerodrome Forecast


Current Version              Previous Versions:   1  2  3  4  5  6  7  8  9  

Terminal Aerodrome Forecast

800
FTUS42 KTAE 300520
TAFTLH
TAF
KTLH 300520Z 3006/3106 08008KT P6SM FEW030
     FM302000 07010G15KT P6SM VCTS SCT040CB
     FM310000 07008KT P6SM SCT250=

Latest METAR

806
SAUS80 KWBC 301500 RRB
MTRTLH
METAR KTLH 301453Z 08011KT 10SM BKN019 29/23 A2999 RMK AO2 SLP153
T02940233 51007


USA.gov is the U.S. government's official web portal to all federal, state and local government web resources and services.